createdAt,value
2023-04-09T05:43:14.767Z,172.35
2023-04-09T05:45:43.935Z,141.88
2023-04-09T05:48:10.994Z,139.70
2023-04-09T05:50:51.558Z,148.13
2023-04-09T05:53:21.689Z,185.52
2023-04-09T05:55:51.370Z,216.60
2023-04-09T05:58:21.543Z,249.55
2023-04-09T06:00:48.850Z,236.27
2023-04-09T06:03:15.803Z,201.35
2023-04-09T06:05:42.567Z,167.60
2023-04-09T06:08:09.273Z,244.73
2023-04-09T06:10:36.148Z,266.33
2023-04-09T06:13:02.812Z,254.68
2023-04-09T06:15:29.953Z,228.50
2023-04-09T06:17:58.897Z,216.82
2023-04-09T06:20:26.101Z,211.65
2023-04-09T06:22:52.802Z,238.00
2023-04-09T06:25:19.534Z,203.68
2023-04-09T06:27:46.792Z,265.27
2023-04-09T06:30:13.680Z,238.38
2023-04-09T06:32:51.053Z,240.63
2023-04-09T06:35:21.153Z,223.15
2023-04-09T06:37:47.837Z,212.38
2023-04-09T06:40:15.472Z,180.80
2023-04-09T06:42:42.153Z,234.23
2023-04-09T06:45:20.398Z,187.98
2023-04-09T06:47:47.234Z,182.38
2023-04-09T06:50:13.937Z,203.65
2023-04-09T06:52:40.727Z,179.27
2023-04-09T06:55:07.844Z,157.38
2023-04-09T06:57:34.537Z,161.57
2023-04-09T07:00:01.186Z,163.68
2023-04-09T07:02:28.190Z,209.23
2023-04-09T07:04:55.409Z,176.10
2023-04-09T07:07:23.779Z,185.93
2023-04-09T07:09:53.489Z,177.55
2023-04-09T07:12:34.408Z,164.65
2023-04-09T07:15:02.375Z,143.63
2023-04-09T07:17:30.599Z,155.93
2023-04-09T07:19:57.537Z,143.40
2023-04-09T07:22:27.213Z,126.75
2023-04-09T07:24:55.247Z,149.63
2023-04-09T07:27:23.756Z,143.13
2023-04-09T07:29:50.661Z,135.05
2023-04-09T07:32:17.628Z,130.55
2023-04-09T07:34:44.567Z,114.38
2023-04-09T07:37:12.022Z,121.88
2023-04-09T07:39:39.209Z,129.20
2023-04-09T07:42:06.041Z,127.47
2023-04-09T07:44:44.195Z,113.28
2023-04-09T07:47:12.767Z,107.28
2023-04-09T07:49:39.499Z,95.00
2023-04-09T07:52:12.161Z,88.05
2023-04-09T07:54:44.644Z,89.63
2023-04-09T07:57:11.336Z,86.43
2023-04-09T07:59:38.077Z,71.40
2023-04-09T08:02:04.891Z,65.93
2023-04-09T08:04:32.013Z,63.35
2023-04-09T08:06:58.739Z,50.97
2023-04-09T08:09:25.406Z,47.97
2023-04-09T08:11:54.575Z,53.40
2023-04-09T08:14:21.372Z,53.03
2023-04-09T08:16:49.937Z,52.10
2023-04-09T08:19:19.032Z,50.83
2023-04-09T08:21:48.724Z,52.67
2023-04-09T08:24:15.812Z,52.30
2023-04-09T08:26:43.160Z,48.53
2023-04-09T08:29:12.149Z,47.60
2023-04-09T08:31:39.234Z,51.38
2023-04-09T08:34:06.432Z,47.50
2023-04-09T08:36:34.926Z,44.05
2023-04-09T08:39:02.378Z,48.97
2023-04-09T08:41:29.463Z,45.13
2023-04-09T08:43:59.212Z,39.95
2023-04-09T08:46:27.513Z,41.28
2023-04-09T08:48:55.289Z,44.00
2023-04-09T08:51:23.931Z,48.83
2023-04-09T08:54:27.173Z,49.13
2023-04-09T08:56:46.398Z,41.20
2023-04-09T08:59:18.560Z,40.88
2023-04-09T09:01:47.972Z,47.45
2023-04-09T09:04:15.435Z,45.20
2023-04-09T09:06:44.252Z,40.42
2023-04-09T09:09:15.982Z,43.63
2023-04-09T09:11:48.359Z,41.25
2023-04-09T09:14:19.008Z,36.33
2023-04-09T09:17:04.801Z,35.45
2023-04-09T09:19:36.318Z,34.63
2023-04-09T09:22:08.395Z,31.58
2023-04-09T09:24:49.641Z,32.33
2023-04-09T09:27:36.269Z,33.67
2023-04-09T09:30:08.715Z,30.30
2023-04-09T09:32:35.830Z,30.13
2023-04-09T09:35:05.303Z,30.60
2023-04-09T09:37:32.728Z,27.88
2023-04-09T09:40:00.525Z,31.17
2023-04-09T09:42:27.564Z,31.63
2023-04-09T09:44:55.439Z,30.25
2023-04-09T09:47:23.499Z,31.02
2023-04-09T09:49:51.391Z,30.15
2023-04-09T09:52:28.697Z,31.38
2023-04-09T09:54:58.831Z,31.58
2023-04-09T09:57:27.804Z,28.98
2023-04-09T09:59:58.078Z,30.23
2023-04-09T10:02:33.204Z,30.85
2023-04-09T10:05:01.223Z,31.45
2023-04-09T10:07:28.616Z,32.30
2023-04-09T10:09:56.806Z,31.27
2023-04-09T10:12:25.028Z,29.52
2023-04-09T10:14:56.255Z,33.28
2023-04-09T10:17:23.285Z,33.53
2023-04-09T10:19:59.346Z,34.08
2023-04-09T10:22:29.992Z,30.63
2023-04-09T10:24:58.125Z,32.85
2023-04-09T10:27:29.743Z,31.85
2023-04-09T10:29:56.806Z,33.42
2023-04-09T10:32:26.770Z,31.55
2023-04-09T10:34:59.173Z,30.85
2023-04-09T10:37:27.441Z,32.85
2023-04-09T10:39:54.599Z,30.45
2023-04-09T10:42:27.388Z,30.65
2023-04-09T10:45:11.860Z,27.95
2023-04-09T10:47:40.842Z,31.88
2023-04-09T10:50:19.138Z,26.85
2023-04-09T10:52:46.534Z,26.52
2023-04-09T10:55:32.125Z,26.08
2023-04-09T10:57:58.944Z,30.27
2023-04-09T11:00:25.664Z,30.58
2023-04-09T11:03:20.325Z,29.55
2023-04-09T11:06:11.647Z,27.80
2023-04-09T11:08:41.437Z,30.23
2023-04-09T11:11:08.148Z,30.00
2023-04-09T11:13:34.914Z,27.60
2023-04-09T11:16:04.128Z,27.52
2023-04-09T11:18:33.842Z,26.02
2023-04-09T11:21:03.700Z,27.15
2023-04-09T11:23:32.024Z,27.38
2023-04-09T11:25:58.711Z,26.55
2023-04-09T11:28:27.157Z,27.10
2023-04-09T11:30:53.922Z,26.83
2023-04-09T11:33:20.920Z,28.10
2023-04-09T11:35:48.316Z,27.88
2023-04-09T11:38:15.309Z,29.40
2023-04-09T11:40:48.432Z,28.27
2023-04-09T11:43:16.601Z,28.90
2023-04-09T11:45:44.215Z,26.90
2023-04-09T11:48:12.158Z,27.83
2023-04-09T11:50:39.231Z,28.45
2023-04-09T11:53:19.726Z,26.92
2023-04-09T11:55:53.310Z,28.50
2023-04-09T11:58:25.525Z,28.85
2023-04-09T12:00:57.964Z,33.33
2023-04-09T12:03:33.010Z,32.15
2023-04-09T12:06:02.514Z,32.30
2023-04-09T12:08:29.429Z,29.85
2023-04-09T12:10:56.185Z,30.20
2023-04-09T12:13:32.652Z,26.25
2023-04-09T12:16:01.246Z,27.60
2023-04-09T12:18:27.966Z,30.67
2023-04-09T12:20:54.673Z,27.20
2023-04-09T12:23:21.514Z,27.83
2023-04-09T12:25:48.316Z,28.73
2023-04-09T12:28:17.904Z,26.58
2023-04-09T12:30:45.230Z,28.38
2023-04-09T12:33:12.000Z,27.40
2023-04-09T12:35:39.069Z,24.42
2023-04-09T12:38:06.129Z,24.80
2023-04-09T12:40:33.017Z,22.10
2023-04-09T12:42:59.807Z,25.45
2023-04-09T12:45:29.329Z,24.90
2023-04-09T12:47:56.235Z,25.38
2023-04-09T12:50:22.937Z,20.63
2023-04-09T12:52:49.854Z,20.45
2023-04-09T12:55:16.825Z,21.42
2023-04-09T12:57:44.948Z,22.90
2023-04-09T13:00:12.597Z,22.17
2023-04-09T13:02:39.801Z,24.85
2023-04-09T13:05:07.336Z,23.55
2023-04-09T13:07:34.164Z,23.75
2023-04-09T13:10:01.383Z,23.27
2023-04-09T13:12:28.209Z,23.52
2023-04-09T13:14:55.520Z,22.15
2023-04-09T13:17:22.623Z,23.48
2023-04-09T13:19:51.011Z,23.65
2023-04-09T13:22:18.610Z,21.80
2023-04-09T13:24:45.386Z,22.30
2023-04-09T13:27:12.112Z,22.05
2023-04-09T13:29:38.984Z,23.77
2023-04-09T13:32:10.865Z,23.88
2023-04-09T13:34:39.400Z,24.85
2023-04-09T13:37:06.562Z,23.35
2023-04-09T13:39:33.426Z,22.02
2023-04-09T13:42:01.581Z,23.30
2023-04-09T13:44:32.595Z,24.08
2023-04-09T13:46:59.563Z,23.08
2023-04-09T13:49:27.278Z,22.77
2023-04-09T13:51:54.167Z,22.73
2023-04-09T13:54:20.979Z,22.83
2023-04-09T13:56:49.952Z,23.77
2023-04-09T13:59:16.894Z,21.25
2023-04-09T14:01:43.603Z,23.88
2023-04-09T14:04:11.161Z,23.73
2023-04-09T14:06:37.848Z,24.70
2023-04-09T14:09:04.554Z,24.67
2023-04-09T14:11:31.264Z,22.83
2023-04-09T14:13:58.109Z,22.63
2023-04-09T14:16:24.864Z,23.75
2023-04-09T14:18:51.728Z,24.85
2023-04-09T14:21:18.902Z,23.50
2023-04-09T14:23:45.710Z,25.23
2023-04-09T14:26:12.475Z,27.73
2023-04-09T14:28:39.395Z,22.70
2023-04-09T14:31:06.415Z,20.17
2023-04-09T14:33:33.119Z,22.45
2023-04-09T14:35:59.988Z,22.95
2023-04-09T14:38:26.730Z,22.23
2023-04-09T14:40:53.474Z,22.42
2023-04-09T14:43:20.159Z,24.17
2023-04-09T14:45:46.862Z,23.35
2023-04-09T14:48:13.614Z,21.70
2023-04-09T14:50:41.159Z,22.58
2023-04-09T14:53:07.835Z,21.85
2023-04-09T14:55:34.609Z,21.88
2023-04-09T14:58:07.081Z,22.10
2023-04-09T15:00:34.057Z,22.67
2023-04-09T15:03:01.147Z,22.65
2023-04-09T15:05:28.181Z,23.67
2023-04-09T15:07:55.819Z,24.15
2023-04-09T15:10:22.529Z,23.17
2023-04-09T15:12:49.249Z,26.00
2023-04-09T15:15:16.238Z,22.33
2023-04-09T15:17:43.034Z,25.15
2023-04-09T15:20:10.456Z,24.02
2023-04-09T15:22:37.157Z,25.15
2023-04-09T15:25:03.995Z,24.48
2023-04-09T15:27:31.008Z,24.15
2023-04-09T15:29:57.713Z,24.52
2023-04-09T15:32:24.533Z,23.95
2023-04-09T15:34:51.305Z,25.05
2023-04-09T15:37:18.075Z,26.00
2023-04-09T15:39:44.782Z,24.30
2023-04-09T15:42:13.467Z,25.08
2023-04-09T15:44:41.431Z,27.25
2023-04-09T15:47:08.258Z,25.88
2023-04-09T15:49:36.736Z,24.65
2023-04-09T15:52:03.610Z,27.85
2023-04-09T15:54:30.506Z,24.35
2023-04-09T15:56:57.256Z,25.00
2023-04-09T15:59:23.935Z,25.10
2023-04-09T16:01:52.401Z,26.73
2023-04-09T16:04:19.209Z,25.30
2023-04-09T16:06:46.209Z,26.95
2023-04-09T16:09:12.922Z,27.52
2023-04-09T16:11:40.608Z,27.70
2023-04-09T16:14:08.996Z,26.73
2023-04-09T16:16:37.090Z,30.05
2023-04-09T16:19:03.807Z,26.17
2023-04-09T16:21:31.053Z,27.92
2023-04-09T16:23:57.860Z,27.20
2023-04-09T16:26:24.579Z,28.42
2023-04-09T16:28:51.750Z,30.10
2023-04-09T16:31:18.749Z,28.45
2023-04-09T16:33:45.775Z,28.75
2023-04-09T16:36:14.168Z,29.23
2023-04-09T16:38:41.510Z,25.85
2023-04-09T16:41:08.293Z,28.70
2023-04-09T16:43:35.912Z,28.50
2023-04-09T16:46:02.904Z,30.95
2023-04-09T16:48:29.662Z,27.35
2023-04-09T16:50:56.412Z,27.15
2023-04-09T16:53:23.180Z,28.95
2023-04-09T16:55:50.015Z,24.67
2023-04-09T16:58:16.911Z,24.25
2023-04-09T17:00:46.098Z,23.70
2023-04-09T17:03:13.789Z,23.52
2023-04-09T17:05:40.927Z,25.30
2023-04-09T17:08:07.789Z,23.70
2023-04-09T17:10:36.912Z,25.30
2023-04-09T17:13:03.688Z,26.42
2023-04-09T17:15:30.424Z,25.75
2023-04-09T17:17:58.363Z,28.38
2023-04-09T17:20:26.057Z,27.85
2023-04-09T17:22:52.897Z,25.35
2023-04-09T17:25:20.596Z,28.15
2023-04-09T17:27:49.644Z,29.90
2023-04-09T17:30:16.414Z,26.95
2023-04-09T17:32:44.186Z,28.38
2023-04-09T17:35:11.281Z,28.45
2023-04-09T17:37:38.673Z,26.27
2023-04-09T17:40:06.483Z,29.27
2023-04-09T17:42:33.188Z,28.55
2023-04-09T17:45:00.078Z,25.90
2023-04-09T17:47:27.286Z,24.98
2023-04-09T17:49:56.857Z,29.25
2023-04-09T17:52:23.594Z,31.92
2023-04-09T17:54:50.886Z,26.55
2023-04-09T17:57:18.379Z,27.13
2023-04-09T17:59:45.172Z,27.55
2023-04-09T18:02:12.666Z,29.35
2023-04-09T18:04:45.290Z,24.33
2023-04-09T18:07:12.182Z,26.13
2023-04-09T18:09:40.442Z,24.80
2023-04-09T18:12:07.361Z,25.25
2023-04-09T18:14:34.099Z,26.05
2023-04-09T18:17:01.223Z,27.80
2023-04-09T18:19:28.132Z,27.35
2023-04-09T18:21:54.876Z,26.75
2023-04-09T18:24:26.209Z,25.92
2023-04-09T18:26:52.931Z,24.27
2023-04-09T18:29:19.682Z,24.27
2023-04-09T18:31:46.512Z,30.15
2023-04-09T18:34:13.277Z,26.10
2023-04-09T18:36:41.718Z,32.17
2023-04-09T18:39:11.197Z,36.40
2023-04-09T18:41:37.876Z,33.70
2023-04-09T18:44:04.552Z,33.38
2023-04-09T18:46:31.287Z,36.08
2023-04-09T18:48:58.174Z,29.95
2023-04-09T18:51:24.831Z,29.38
2023-04-09T18:53:53.795Z,45.00
2023-04-09T18:56:21.123Z,63.40
2023-04-09T18:58:53.861Z,43.40
2023-04-09T19:01:21.110Z,36.60
2023-04-09T19:03:48.054Z,32.95
2023-04-09T19:06:17.965Z,31.17
2023-04-09T19:08:50.071Z,38.45
2023-04-09T19:11:16.917Z,39.00
2023-04-09T19:13:43.741Z,37.33
2023-04-09T19:16:10.717Z,38.42
2023-04-09T19:18:37.829Z,38.88
2023-04-09T19:21:10.500Z,36.50
2023-04-09T19:23:37.327Z,32.90
2023-04-09T19:26:05.334Z,32.42
2023-04-09T19:28:32.306Z,41.03
2023-04-09T19:31:01.340Z,38.92
2023-04-09T19:33:29.639Z,72.03
2023-04-09T19:35:56.339Z,53.90
2023-04-09T19:38:23.262Z,48.40
2023-04-09T19:40:49.986Z,53.00
2023-04-09T19:43:16.778Z,46.55
2023-04-09T19:45:43.564Z,42.75
2023-04-09T19:48:10.490Z,47.10
2023-04-09T19:50:38.844Z,38.17
2023-04-09T19:53:06.246Z,37.92
2023-04-09T19:55:36.010Z,40.70
2023-04-09T19:58:03.472Z,39.03
2023-04-09T20:00:30.588Z,40.10
2023-04-09T20:02:57.719Z,65.28
2023-04-09T20:05:24.758Z,43.42
2023-04-09T20:07:52.855Z,41.78
2023-04-09T20:10:20.588Z,43.30
2023-04-09T20:12:49.283Z,38.03
2023-04-09T20:15:20.240Z,33.88
2023-04-09T20:17:48.774Z,29.70
2023-04-09T20:20:19.707Z,28.42
2023-04-09T20:22:55.488Z,27.10
2023-04-09T20:25:26.528Z,30.05
2023-04-09T20:27:54.188Z,29.58
2023-04-09T20:30:21.256Z,27.45
2023-04-09T20:32:49.105Z,29.83
2023-04-09T20:35:16.343Z,28.33
2023-04-09T20:37:45.907Z,27.67
2023-04-09T20:40:12.866Z,29.90
2023-04-09T20:42:41.370Z,28.00
2023-04-09T20:45:09.255Z,31.85
2023-04-09T20:47:36.445Z,34.67
2023-04-09T20:50:06.606Z,34.10
2023-04-09T20:52:42.046Z,32.33
2023-04-09T20:55:14.309Z,37.22
2023-04-09T20:57:43.943Z,37.50
2023-04-09T21:00:11.394Z,41.83
2023-04-09T21:02:39.233Z,42.65
